createdAt,value
2023-04-01T00:01:45.441Z,63.04
2023-04-01T00:04:11.785Z,62.31
2023-04-01T00:06:38.133Z,62.44
2023-04-01T00:09:04.434Z,61.46
2023-04-01T00:11:32.006Z,60.83
2023-04-01T00:13:58.356Z,60.99
2023-04-01T00:16:24.703Z,60.92
2023-04-01T00:18:51.215Z,61.49
2023-04-01T00:21:17.588Z,60.62
2023-04-01T00:23:43.900Z,60.31
2023-04-01T00:26:10.198Z,60.67
2023-04-01T00:28:36.511Z,60.77
2023-04-01T00:31:02.823Z,60.64
2023-04-01T00:33:29.123Z,59.71
2023-04-01T00:35:55.438Z,60.06
2023-04-01T00:38:21.839Z,59.98
2023-04-01T00:40:48.161Z,59.73
2023-04-01T00:43:14.504Z,59.39
2023-04-01T00:45:40.801Z,59.68
2023-04-01T00:48:07.225Z,59.41
2023-04-01T00:50:33.625Z,59.15
2023-04-01T00:52:59.918Z,58.25
2023-04-01T00:55:26.213Z,58.54
2023-04-01T00:57:52.530Z,57.85
2023-04-01T01:00:18.825Z,58.24
2023-04-01T01:02:45.278Z,58.41
2023-04-01T01:05:11.669Z,58.56
2023-04-01T01:07:37.986Z,59.50
2023-04-01T01:10:04.305Z,60.36
2023-04-01T01:12:30.628Z,61.58
2023-04-01T01:14:56.967Z,61.99
2023-04-01T01:17:23.379Z,61.76
2023-04-01T01:19:49.765Z,61.56
2023-04-01T01:22:16.093Z,61.64
2023-04-01T01:24:42.405Z,61.99
2023-04-01T01:27:08.712Z,62.01
2023-04-01T01:29:35.041Z,62.22
2023-04-01T01:32:01.369Z,62.88
2023-04-01T01:34:27.700Z,63.37
2023-04-01T01:36:54.036Z,63.82
2023-04-01T01:39:20.349Z,64.81
2023-04-01T01:41:46.644Z,63.93
2023-04-01T01:44:12.963Z,63.78
2023-04-01T01:46:39.280Z,63.32
2023-04-01T01:49:06.678Z,63.78
2023-04-01T01:51:32.980Z,63.19
2023-04-01T01:53:59.294Z,62.62
2023-04-01T01:56:25.598Z,62.82
2023-04-01T01:58:51.911Z,61.92
2023-04-01T02:01:18.310Z,62.11
2023-04-01T02:03:44.675Z,61.81
2023-04-01T02:06:10.982Z,61.81
2023-04-01T02:08:37.277Z,61.51
2023-04-01T02:11:03.573Z,62.03
2023-04-01T02:13:29.898Z,61.48
2023-04-01T02:15:56.261Z,60.65
2023-04-01T02:18:22.601Z,61.12
2023-04-01T02:20:48.918Z,61.38
2023-04-01T02:23:15.229Z,61.40
2023-04-01T02:25:41.641Z,61.58
2023-04-01T02:28:07.950Z,61.33
2023-04-01T02:30:34.266Z,61.30
2023-04-01T02:33:00.592Z,60.98
2023-04-01T02:35:26.953Z,61.06
2023-04-01T02:37:53.285Z,61.18
2023-04-01T02:40:19.590Z,60.99
2023-04-01T02:42:45.909Z,61.26
2023-04-01T02:45:12.220Z,61.02
2023-04-01T02:47:38.600Z,60.82
2023-04-01T02:50:04.937Z,61.00
2023-04-01T02:52:31.247Z,61.81
2023-04-01T02:54:57.556Z,61.76
2023-04-01T02:57:23.903Z,62.35
2023-04-01T02:59:50.216Z,62.63
2023-04-01T03:02:16.563Z,63.00
2023-04-01T03:04:42.905Z,63.11
2023-04-01T03:07:09.218Z,63.55
2023-04-01T03:09:35.529Z,64.12
2023-04-01T03:12:01.837Z,64.78
2023-04-01T03:14:28.162Z,64.91
2023-04-01T03:16:54.612Z,65.37
2023-04-01T03:19:21.078Z,65.11
2023-04-01T03:21:47.377Z,65.34
2023-04-01T03:24:13.683Z,65.55
2023-04-01T03:26:39.991Z,65.68
2023-04-01T03:29:06.298Z,65.49
2023-04-01T03:31:32.661Z,65.80
2023-04-01T03:33:59.005Z,65.97
2023-04-01T03:36:25.340Z,66.00
2023-04-01T03:38:51.674Z,66.72
2023-04-01T03:41:17.989Z,66.67
2023-04-01T03:43:44.317Z,67.24
2023-04-01T03:46:10.646Z,67.74
2023-04-01T03:48:37.003Z,68.29
2023-04-01T03:51:03.308Z,68.71
2023-04-01T03:53:29.653Z,69.07
2023-04-01T03:55:55.983Z,68.69
2023-04-01T03:58:22.421Z,68.96
2023-04-01T04:00:48.744Z,68.89
2023-04-01T04:03:15.160Z,68.12
2023-04-01T04:05:41.509Z,68.31
2023-04-01T04:08:07.824Z,68.04
2023-04-01T04:10:34.118Z,67.78
2023-04-01T04:13:00.434Z,68.08
2023-04-01T04:15:26.781Z,68.50
2023-04-01T04:17:53.193Z,68.17
2023-04-01T04:20:19.632Z,67.83
2023-04-01T04:22:45.937Z,67.49
2023-04-01T04:25:12.254Z,67.74
2023-04-01T04:27:38.572Z,67.61
2023-04-01T04:30:04.905Z,67.31
2023-04-01T04:32:31.354Z,67.59
2023-04-01T04:34:57.752Z,67.58
2023-04-01T04:37:24.073Z,67.81
2023-04-01T04:39:50.401Z,67.53
2023-04-01T04:42:16.764Z,67.36
2023-04-01T04:44:43.121Z,67.66
2023-04-01T04:47:09.460Z,69.01
2023-04-01T04:49:35.817Z,69.55
2023-04-01T04:52:02.158Z,69.53
2023-04-01T04:54:28.471Z,69.65
2023-04-01T04:56:54.847Z,69.72
2023-04-01T04:59:21.195Z,69.99
2023-04-01T05:01:50.649Z,70.38
2023-04-01T05:04:17.018Z,70.39
2023-04-01T05:06:43.349Z,70.93
2023-04-01T05:09:09.663Z,71.25
2023-04-01T05:11:35.974Z,71.70
2023-04-01T05:14:02.288Z,70.97
2023-04-01T05:16:28.662Z,70.96
2023-04-01T05:18:55.029Z,71.36
2023-04-01T05:21:21.353Z,71.55
2023-04-01T05:23:47.671Z,71.35
2023-04-01T05:26:13.981Z,71.82
2023-04-01T05:28:40.298Z,71.52
2023-04-01T05:31:06.670Z,71.46
2023-04-01T05:33:33.002Z,71.48
2023-04-01T05:35:59.314Z,71.13
2023-04-01T05:38:25.632Z,71.01
2023-04-01T05:40:51.948Z,71.20
2023-04-01T05:43:18.247Z,70.38
2023-04-01T05:45:44.611Z,70.54
2023-04-01T05:48:10.977Z,70.21
2023-04-01T05:50:37.298Z,70.24
2023-04-01T05:53:03.630Z,70.15
2023-04-01T05:55:29.939Z,69.76
2023-04-01T05:57:56.263Z,70.07
2023-04-01T06:00:22.582Z,69.78
2023-04-01T06:02:49.035Z,69.38
2023-04-01T06:05:15.381Z,68.81
2023-04-01T06:07:41.676Z,68.49
2023-04-01T06:10:07.991Z,68.79
2023-04-01T06:12:34.362Z,68.27
2023-04-01T06:15:00.690Z,68.22
2023-04-01T06:17:27.029Z,67.97
2023-04-01T06:19:53.350Z,68.15
2023-04-01T06:22:19.645Z,67.88
2023-04-01T06:24:45.952Z,67.74
2023-04-01T06:27:12.277Z,67.88
2023-04-01T06:29:38.575Z,67.59
2023-04-01T06:32:04.899Z,67.59
2023-04-01T06:34:31.243Z,67.43
2023-04-01T06:36:57.560Z,67.89
2023-04-01T06:39:23.902Z,66.71
2023-04-01T06:41:50.197Z,66.59
2023-04-01T06:44:16.510Z,67.23
2023-04-01T06:46:42.811Z,67.89
2023-04-01T06:49:09.121Z,68.02
2023-04-01T06:51:35.472Z,68.63
2023-04-01T06:54:01.789Z,68.37
2023-04-01T06:56:28.102Z,69.34
2023-04-01T06:58:54.408Z,69.41
2023-04-01T07:01:20.928Z,69.78
2023-04-01T07:03:47.306Z,69.52
2023-04-01T07:06:13.604Z,69.61
2023-04-01T07:08:39.940Z,69.57
2023-04-01T07:11:06.244Z,69.23
2023-04-01T07:13:32.582Z,69.83
2023-04-01T07:15:58.913Z,69.60
2023-04-01T07:18:25.227Z,68.95
2023-04-01T07:20:51.538Z,68.73
2023-04-01T07:23:17.840Z,68.46
2023-04-01T07:25:44.342Z,68.34
2023-04-01T07:28:10.639Z,68.11
2023-04-01T07:30:36.955Z,67.99
2023-04-01T07:33:03.361Z,68.55
2023-04-01T07:35:29.698Z,68.41
2023-04-01T07:37:56.033Z,69.36
2023-04-01T07:40:22.361Z,69.92
2023-04-01T07:42:48.696Z,69.87
2023-04-01T07:45:15.003Z,69.77
2023-04-01T07:47:41.314Z,70.33
2023-04-01T07:50:07.656Z,69.61
2023-04-01T07:52:33.963Z,69.17
2023-04-01T07:55:00.270Z,70.14
2023-04-01T07:57:26.594Z,70.15
2023-04-01T07:59:53.026Z,69.07
2023-04-01T08:02:19.475Z,70.06
2023-04-01T08:04:46.005Z,69.36
2023-04-01T08:07:12.355Z,69.50
2023-04-01T08:09:38.667Z,68.74
2023-04-01T08:12:04.995Z,68.85
2023-04-01T08:14:31.328Z,69.35
2023-04-01T08:16:57.651Z,68.42
2023-04-01T08:19:23.953Z,68.11
2023-04-01T08:21:50.253Z,68.67
2023-04-01T08:24:16.574Z,67.98
2023-04-01T08:26:42.886Z,68.87
2023-04-01T08:29:09.187Z,69.66
2023-04-01T08:31:35.540Z,69.49
2023-04-01T08:34:01.903Z,69.12
2023-04-01T08:36:28.255Z,67.43
2023-04-01T08:38:54.584Z,67.04
2023-04-01T08:41:20.910Z,68.59
2023-04-01T08:43:47.248Z,68.40
2023-04-01T08:46:13.617Z,67.70
2023-04-01T08:48:39.991Z,66.40
2023-04-01T08:51:06.772Z,65.25
2023-04-01T08:53:33.151Z,66.36
2023-04-01T08:55:59.461Z,65.51
2023-04-01T08:58:25.783Z,64.61
2023-04-01T09:00:52.102Z,65.67
2023-04-01T09:03:18.537Z,65.49
2023-04-01T09:05:44.926Z,65.91
2023-04-01T09:08:11.248Z,66.36
2023-04-01T09:10:37.569Z,66.25
2023-04-01T09:13:03.861Z,65.55
2023-04-01T09:15:30.390Z,66.81
2023-04-01T09:17:56.849Z,67.42
2023-04-01T09:20:23.207Z,68.02
2023-04-01T09:22:49.524Z,66.63
2023-04-01T09:25:15.863Z,66.85
2023-04-01T09:27:42.178Z,65.94
2023-04-01T09:30:08.478Z,66.19
2023-04-01T09:32:34.829Z,65.71
2023-04-01T09:35:01.129Z,64.89
2023-04-01T09:37:27.449Z,67.17
2023-04-01T09:39:53.766Z,66.81
2023-04-01T09:42:20.075Z,67.34
2023-04-01T09:44:46.385Z,65.77
2023-04-01T09:47:12.733Z,64.95
2023-04-01T09:49:39.308Z,64.55
2023-04-01T09:52:05.633Z,64.99
2023-04-01T09:54:31.952Z,66.32
2023-04-01T09:56:58.293Z,65.46
2023-04-01T09:59:24.620Z,66.34
2023-04-01T10:01:50.979Z,67.20
2023-04-01T10:04:17.309Z,67.88
2023-04-01T10:06:43.613Z,68.81
2023-04-01T10:09:09.944Z,69.02
2023-04-01T10:11:36.259Z,69.16
2023-04-01T10:14:02.615Z,70.72
2023-04-01T10:16:28.964Z,70.81
2023-04-01T10:18:55.279Z,71.01
2023-04-01T10:21:21.594Z,72.27
2023-04-01T10:23:47.907Z,70.68
2023-04-01T10:26:14.222Z,69.37
2023-04-01T10:28:40.550Z,69.27
2023-04-01T10:31:06.853Z,69.57
2023-04-01T10:33:33.181Z,69.16
2023-04-01T10:35:59.506Z,67.59
2023-04-01T10:38:26.915Z,66.42
2023-04-01T10:40:54.477Z,65.60
2023-04-01T10:43:20.790Z,65.12
2023-04-01T10:45:47.090Z,64.54
2023-04-01T10:48:13.425Z,65.48
2023-04-01T10:50:39.738Z,66.55
2023-04-01T10:53:07.237Z,65.36
2023-04-01T10:55:33.884Z,65.16
2023-04-01T10:58:00.474Z,66.13
2023-04-01T11:00:26.798Z,65.42
2023-04-01T11:02:53.216Z,64.25
2023-04-01T11:05:20.916Z,65.69
2023-04-01T11:07:53.023Z,65.40
2023-04-01T11:10:29.351Z,64.57
2023-04-01T11:12:55.674Z,62.98
2023-04-01T11:15:22.054Z,62.52
2023-04-01T11:17:48.454Z,64.41
2023-04-01T11:20:14.804Z,63.31
2023-04-01T11:22:41.189Z,63.24
2023-04-01T11:25:07.488Z,62.83
2023-04-01T11:27:33.812Z,61.49
2023-04-01T11:30:00.899Z,60.63
2023-04-01T11:32:27.372Z,61.90
2023-04-01T11:34:53.712Z,60.46
2023-04-01T11:37:20.032Z,61.59
2023-04-01T11:39:46.360Z,61.82
2023-04-01T11:42:12.681Z,61.30
2023-04-01T11:44:38.983Z,62.55
2023-04-01T11:47:05.298Z,62.23
2023-04-01T11:49:31.609Z,61.98
2023-04-01T11:51:57.928Z,60.35
2023-04-01T11:54:24.251Z,61.55
2023-04-01T11:56:50.580Z,60.34
2023-04-01T11:59:16.927Z,61.09
2023-04-01T12:01:43.244Z,61.24
2023-04-01T12:04:09.770Z,62.25
2023-04-01T12:06:36.173Z,61.80
2023-04-01T12:09:02.481Z,61.49
2023-04-01T12:11:28.812Z,59.58
2023-04-01T12:13:55.120Z,60.58
2023-04-01T12:16:21.451Z,61.29
2023-04-01T12:18:47.797Z,60.24
2023-04-01T12:21:14.106Z,60.02
2023-04-01T12:23:40.423Z,58.13
2023-04-01T12:26:06.739Z,56.21
2023-04-01T12:28:33.067Z,55.36
2023-04-01T12:30:59.408Z,56.34
2023-04-01T12:33:25.720Z,57.54
2023-04-01T12:35:52.088Z,58.05
2023-04-01T12:38:20.291Z,59.65
2023-04-01T12:40:47.873Z,56.56
2023-04-01T12:43:14.188Z,55.64
2023-04-01T12:45:40.546Z,54.93
2023-04-01T12:48:06.895Z,54.12
2023-04-01T12:50:33.215Z,56.83
2023-04-01T12:52:59.530Z,56.31
2023-04-01T12:55:25.840Z,54.97
2023-04-01T12:57:52.153Z,54.02
2023-04-01T13:00:18.457Z,53.40
2023-04-01T13:02:44.851Z,54.02
2023-04-01T13:05:11.184Z,52.30
2023-04-01T13:07:37.496Z,52.96
2023-04-01T13:10:03.841Z,55.28
2023-04-01T13:12:30.179Z,52.70
2023-04-01T13:14:56.487Z,53.77
2023-04-01T13:17:22.820Z,53.20
2023-04-01T13:19:57.993Z,52.93
2023-04-01T13:22:30.960Z,52.57
2023-04-01T13:24:57.278Z,52.27
2023-04-01T13:27:23.597Z,51.55
2023-04-01T13:29:49.961Z,52.61
2023-04-01T13:32:16.281Z,52.69
2023-04-01T13:34:42.570Z,53.42
2023-04-01T13:37:08.870Z,54.82
2023-04-01T13:39:35.181Z,57.30
2023-04-01T13:42:01.495Z,57.71
2023-04-01T13:44:27.788Z,57.97
2023-04-01T13:46:54.128Z,56.67
2023-04-01T13:49:20.511Z,56.90
2023-04-01T13:51:46.837Z,55.33
2023-04-01T13:54:13.149Z,55.98
2023-04-01T13:56:39.473Z,56.04
2023-04-01T13:59:05.796Z,55.49
2023-04-01T14:01:32.201Z,55.54
2023-04-01T14:03:58.584Z,55.39
2023-04-01T14:06:24.943Z,58.10
2023-04-01T14:08:51.256Z,58.76
2023-04-01T14:11:17.595Z,56.97
2023-04-01T14:13:43.913Z,55.87
2023-04-01T14:16:10.264Z,55.94
2023-04-01T14:18:36.620Z,56.76
2023-04-01T14:21:02.938Z,57.66
2023-04-01T14:23:29.247Z,57.41
2023-04-01T14:25:55.552Z,58.93
2023-04-01T14:28:21.863Z,59.04
2023-04-01T14:30:48.169Z,59.86
2023-04-01T14:33:14.534Z,59.91
2023-04-01T14:35:41.022Z,61.84
2023-04-01T14:38:07.378Z,63.70
2023-04-01T14:40:33.676Z,63.11
2023-04-01T14:42:59.978Z,63.05
2023-04-01T14:45:26.292Z,62.66
2023-04-01T14:47:52.670Z,62.90
2023-04-01T14:50:19.064Z,61.26
2023-04-01T14:52:45.393Z,60.97
2023-04-01T14:55:11.701Z,61.67
2023-04-01T14:57:38.151Z,59.73
2023-04-01T15:00:04.467Z,60.81
2023-04-01T15:02:31.045Z,60.03
2023-04-01T15:04:57.407Z,59.20
2023-04-01T15:07:23.769Z,59.90
2023-04-01T15:09:50.073Z,59.69
2023-04-01T15:12:16.402Z,59.66
2023-04-01T15:14:42.725Z,59.14
2023-04-01T15:17:09.017Z,58.65
2023-04-01T15:19:35.321Z,57.66
2023-04-01T15:22:01.663Z,56.20
2023-04-01T15:24:28.040Z,58.31
2023-04-01T15:26:54.345Z,58.52
2023-04-01T15:29:20.636Z,58.58
2023-04-01T15:31:46.952Z,59.58
2023-04-01T15:34:13.298Z,57.92
2023-04-01T15:36:41.463Z,57.71
2023-04-01T15:39:07.991Z,58.05
2023-04-01T15:41:34.316Z,56.54
2023-04-01T15:44:00.638Z,57.11
2023-04-01T15:46:26.991Z,57.16
2023-04-01T15:48:53.324Z,56.07
2023-04-01T15:51:19.641Z,55.99
2023-04-01T15:53:45.942Z,56.53
2023-04-01T15:56:12.253Z,54.86
2023-04-01T15:58:38.568Z,55.67
2023-04-01T16:01:04.896Z,56.47
2023-04-01T16:03:31.296Z,56.04
2023-04-01T16:05:57.655Z,56.13
2023-04-01T16:08:23.966Z,57.22
2023-04-01T16:10:50.276Z,57.93
2023-04-01T16:13:16.570Z,57.14
2023-04-01T16:15:42.886Z,57.02
2023-04-01T16:18:09.216Z,57.74
2023-04-01T16:20:35.774Z,55.36
2023-04-01T16:23:02.153Z,55.28
2023-04-01T16:25:28.474Z,54.86
2023-04-01T16:27:55.922Z,55.29
2023-04-01T16:30:22.805Z,55.02
2023-04-01T16:32:49.131Z,54.27
2023-04-01T16:35:15.455Z,54.77
2023-04-01T16:37:41.762Z,53.83
2023-04-01T16:40:08.096Z,52.57
2023-04-01T16:42:34.430Z,53.03
2023-04-01T16:45:00.757Z,52.84
2023-04-01T16:47:27.157Z,52.02
2023-04-01T16:49:53.507Z,52.38
2023-04-01T16:52:19.823Z,53.29
2023-04-01T16:54:46.152Z,53.18
2023-04-01T16:57:12.499Z,53.55
2023-04-01T16:59:38.847Z,54.06
2023-04-01T17:02:05.166Z,54.15
2023-04-01T17:04:31.533Z,54.38
2023-04-01T17:06:57.897Z,54.31
2023-04-01T17:09:24.212Z,53.92
2023-04-01T17:11:50.558Z,54.19
2023-04-01T17:14:16.908Z,54.55
2023-04-01T17:16:43.237Z,55.41
2023-04-01T17:19:09.582Z,55.07
2023-04-01T17:21:35.902Z,55.86
2023-04-01T17:24:02.239Z,55.86
2023-04-01T17:26:28.628Z,55.94
2023-04-01T17:28:54.982Z,56.22
2023-04-01T17:31:21.403Z,56.02
2023-04-01T17:33:47.721Z,56.10
2023-04-01T17:36:14.025Z,56.52
2023-04-01T17:38:40.345Z,55.64
2023-04-01T17:41:06.657Z,56.50
2023-04-01T17:43:32.962Z,57.10
2023-04-01T17:45:59.271Z,58.78
2023-04-01T17:48:25.586Z,59.10
2023-04-01T17:50:51.887Z,59.02
2023-04-01T17:53:18.201Z,59.17
2023-04-01T17:55:44.520Z,58.52
2023-04-01T17:58:10.837Z,58.77
2023-04-01T18:00:50.644Z,58.31
2023-04-01T18:03:19.775Z,57.75
2023-04-01T18:05:46.188Z,58.09
2023-04-01T18:08:12.525Z,57.96
2023-04-01T18:10:38.831Z,57.59
2023-04-01T18:13:05.160Z,57.91
2023-04-01T18:15:31.493Z,58.42
2023-04-01T18:17:57.871Z,58.34
2023-04-01T18:20:24.265Z,57.79
2023-04-01T18:22:50.567Z,58.41
2023-04-01T18:25:16.869Z,58.59
2023-04-01T18:27:43.190Z,58.84
2023-04-01T18:30:09.480Z,58.71
2023-04-01T18:32:35.878Z,58.97
2023-04-01T18:35:02.252Z,58.64
2023-04-01T18:37:28.545Z,58.90
2023-04-01T18:39:54.870Z,58.59
2023-04-01T18:42:21.169Z,59.13
2023-04-01T18:44:47.469Z,58.91
2023-04-01T18:47:13.773Z,59.41
2023-04-01T18:49:40.064Z,59.44
2023-04-01T18:52:06.382Z,59.60
2023-04-01T18:54:32.697Z,59.35
2023-04-01T18:56:59.025Z,59.88
2023-04-01T18:59:25.350Z,59.56
2023-04-01T19:01:51.670Z,59.78
2023-04-01T19:04:17.977Z,60.20
2023-04-01T19:06:44.296Z,60.51
2023-04-01T19:09:10.660Z,60.09
2023-04-01T19:11:36.985Z,60.42
2023-04-01T19:14:03.308Z,59.87
2023-04-01T19:16:29.613Z,59.95
2023-04-01T19:18:55.919Z,59.72
2023-04-01T19:21:22.261Z,59.99
2023-04-01T19:23:48.582Z,60.36
2023-04-01T19:26:14.916Z,60.00
2023-04-01T19:28:41.237Z,60.60
2023-04-01T19:31:07.585Z,60.80
2023-04-01T19:33:33.936Z,60.49
2023-04-01T19:36:00.297Z,60.51
2023-04-01T19:38:26.615Z,60.05
2023-04-01T19:40:52.932Z,59.76
2023-04-01T19:43:19.247Z,59.69
2023-04-01T19:45:45.556Z,59.55
2023-04-01T19:48:11.879Z,60.04
2023-04-01T19:50:38.200Z,59.87
2023-04-01T19:53:04.529Z,59.62
2023-04-01T19:55:30.856Z,60.74
2023-04-01T19:57:57.157Z,60.15
2023-04-01T20:00:23.677Z,60.35
2023-04-01T20:02:50.279Z,60.64
2023-04-01T20:05:16.765Z,59.36
2023-04-01T20:07:43.089Z,59.63
2023-04-01T20:10:09.406Z,59.99
2023-04-01T20:12:35.723Z,60.23
2023-04-01T20:15:02.044Z,59.65
2023-04-01T20:17:28.352Z,60.06
2023-04-01T20:19:54.663Z,60.25
2023-04-01T20:22:20.958Z,59.81
2023-04-01T20:24:47.282Z,60.45
2023-04-01T20:27:13.589Z,60.67
2023-04-01T20:29:39.922Z,59.90
2023-04-01T20:32:06.307Z,60.26
2023-04-01T20:34:32.686Z,59.74
2023-04-01T20:36:59.027Z,60.52
2023-04-01T20:39:25.343Z,60.04
2023-04-01T20:41:51.665Z,60.38
2023-04-01T20:44:17.975Z,60.27
2023-04-01T20:46:45.292Z,60.49
2023-04-01T20:49:12.553Z,60.12
2023-04-01T20:51:38.875Z,60.80
2023-04-01T20:54:05.194Z,60.92
2023-04-01T20:56:31.491Z,61.24
2023-04-01T20:58:57.818Z,60.98
2023-04-01T21:01:24.222Z,61.50
2023-04-01T21:03:50.568Z,61.16
2023-04-01T21:06:16.895Z,61.37
2023-04-01T21:08:43.199Z,61.40
2023-04-01T21:11:09.518Z,61.23
2023-04-01T21:13:35.838Z,61.69
2023-04-01T21:16:02.225Z,62.12
2023-04-01T21:18:28.551Z,61.78
2023-04-01T21:20:54.879Z,61.74
2023-04-01T21:23:21.200Z,61.41
2023-04-01T21:25:47.506Z,61.29
2023-04-01T21:28:13.807Z,61.03
2023-04-01T21:30:40.130Z,61.29
2023-04-01T21:33:06.464Z,61.05
2023-04-01T21:35:33.066Z,60.94
2023-04-01T21:37:59.659Z,60.99
2023-04-01T21:40:25.971Z,61.19
2023-04-01T21:42:52.306Z,60.94
2023-04-01T21:45:18.605Z,60.55
2023-04-01T21:47:44.958Z,60.47
2023-04-01T21:50:11.295Z,61.06
2023-04-01T21:52:37.611Z,61.05
2023-04-01T21:55:03.910Z,60.79
2023-04-01T21:57:30.356Z,60.72
2023-04-01T21:59:56.749Z,60.46
2023-04-01T22:02:23.158Z,60.88
2023-04-01T22:04:49.474Z,60.01
2023-04-01T22:07:15.785Z,60.53
2023-04-01T22:09:42.093Z,59.96
2023-04-01T22:12:08.414Z,60.03
2023-04-01T22:14:34.717Z,60.88
2023-04-01T22:17:01.034Z,61.00
2023-04-01T22:19:27.362Z,60.46
2023-04-01T22:21:53.720Z,61.06
2023-04-01T22:24:20.024Z,60.56
2023-04-01T22:26:46.332Z,60.59
2023-04-01T22:29:12.628Z,60.73
2023-04-01T22:31:38.958Z,60.55
2023-04-01T22:34:05.358Z,60.70
2023-04-01T22:36:31.648Z,60.87
2023-04-01T22:38:57.971Z,60.35
2023-04-01T22:41:24.270Z,60.97
2023-04-01T22:43:50.566Z,60.60
2023-04-01T22:46:16.918Z,60.93
2023-04-01T22:48:43.308Z,60.64
2023-04-01T22:51:09.624Z,60.81
2023-04-01T22:53:35.932Z,60.55
2023-04-01T22:56:02.264Z,60.53
2023-04-01T22:58:28.566Z,60.80
2023-04-01T23:00:54.913Z,61.01
2023-04-01T23:03:21.221Z,61.23
2023-04-01T23:05:47.520Z,61.25
2023-04-01T23:08:13.817Z,61.38
2023-04-01T23:10:40.114Z,61.41
2023-04-01T23:13:06.453Z,61.53
2023-04-01T23:15:32.971Z,61.70
2023-04-01T23:17:59.487Z,61.19
2023-04-01T23:20:25.861Z,61.41
2023-04-01T23:22:52.181Z,61.54
2023-04-01T23:25:18.490Z,61.44
2023-04-01T23:27:44.796Z,61.72
2023-04-01T23:30:11.101Z,61.39
2023-04-01T23:32:37.475Z,61.50
2023-04-01T23:35:03.826Z,62.11
2023-04-01T23:37:30.145Z,62.04
2023-04-01T23:39:56.466Z,62.03
2023-04-01T23:42:22.782Z,61.33
2023-04-01T23:44:49.082Z,62.01
2023-04-01T23:47:15.412Z,60.79
2023-04-01T23:49:41.731Z,61.29
2023-04-01T23:52:08.033Z,61.58
2023-04-01T23:54:34.372Z,61.93
2023-04-01T23:57:00.734Z,62.19
2023-04-01T23:59:27.072Z,62.55
